Accueil
METAR-TAF:

METAR-TAF

Aéroports :

Aéroport de Deauville-Normandie

Deauville, France

latitude: 49-21-55N, longitude: 000-09-16E, altitude: 146 m

Observation

Le bulletin a été fait il y a 33 minutes, à 07:30 UTC
Vent 8 kt de sud
Température 15°C
Humidité 94%
Pression 1008 hPa
Visibilité 10 km ou plus
Nuages fragmentés à une hauteur de 1000 ft
Nuages fragmentés à une hauteur de 1600 ft

METAR: LFRG 150730Z AUTO 19008KT 9999 BKN010 BKN016 15/14 Q1008 BECMG BKN025

Heure: 10:03 (08:03 UTC)

Prévision

Le bulletin a été fait il y a 1 heure et 20 minutes, à 06:43 UTC
Prévision valable du 15 à 06 UTC au 15 à 15 UTC
Vent 8 kt de sud
Visibilité 10 km ou plus
Nuages fragmentés à une hauteur de 2500 ft
Temporairement
du 15 à 06 UTC au 15 à 08 UTC
Nuages fragmentés à une hauteur de 1200 ft

TAF: LFRG 150643Z 1506/1515 17008KT 9999 BKN025 TEMPO 1506/1508 BKN012

Observations et prévisions météorologiques de plus de 4000 aéroports (messages METAR et TAF).

Les stations disponibles sont représentées par des disques jaunes et rouges sur la carte.

Passer la souris dessus pour voir le nom de la station.

Cliquer dessus pour voir les observations et prévisions météorologiques.

Pour changer de carte: cliquez sur les boutons verts avec une croix noire pour zoomer, sur le bouton vert avec un tiret pour effectuer un zoom arrière, ou sur les flèches vertes pour les cartes adjacentes.


METAR-TAF: